Terminal Aerodrome Forecast
Issued by NWS

Home | Current Version | Previous Version | Text Only | Print | Product List | Glossary Off
Versions: 1 2 3 4 5 6 7 8 9 10 11 12 13 14 15 16 17 18 19 20 21 22 23 24 25 26 27 28 29 30 31 32 33 34 35 36 37 38

000
FTUS43 KGRB 240644 AAA
TAFRHI
TAF AMD
KRHI 240644Z 2407/2506 04006KT P6SM VCSH OVC010
      TEMPO 2407/2411 -SHRA SCT010 BKN040
     FM241100 03007KT P6SM VCSH SCT008 OVC015
     FM241500 06009KT P6SM OVC012
     FM241700 06009KT P6SM OVC022
     FM242200 06005KT P6SM SCT025 BKN040=

USA.gov is the U.S. government's official web portal to all federal, state and local government web resources and services.